Time;durP1;ratioP1;P1;durP2;ratioP2;P2;SDS_P1;SDS_P2;PMS_P1;PMS_P2;Temp;Humidity;BMP_temperature;BMP_pressure;BME280_temperature;BME280_humidity;BME280_pressure;Samples;Min_cycle;Max_cycle;Signal;HPM_P1;HPM_P2
2022/03/15 00:01:23;;;;;;;24.77;15.30;;;;;;;;;;5054765;28;20025;-78
2022/03/15 00:03:50;;;;;;;24.73;13.73;;;;;;;;;;5054225;28;20099;-77
2022/03/15 00:06:16;;;;;;;22.08;13.15;;;;;;;;;;5054625;28;20033;-77
2022/03/15 00:08:44;;;;;;;16.35;10.23;;;;;;;;;;5057924;28;20025;-78
2022/03/15 00:11:12;;;;;;;13.43;8.93;;;;;;;;;;5054303;28;20031;-77
2022/03/15 00:13:38;;;;;;;13.90;7.78;;;;;;;;;;5053818;28;20017;-77
2022/03/15 00:16:06;;;;;;;15.20;10.20;;;;;;;;;;5054316;28;20048;-77
2022/03/15 00:18:32;;;;;;;15.88;9.45;;;;;;;;;;5053646;28;20017;-77
2022/03/15 00:20:59;;;;;;;14.25;8.55;;;;;;;;;;5053323;28;20439;-77
2022/03/15 00:23:26;;;;;;;17.90;10.85;;;;;;;;;;5053765;28;20021;-78
2022/03/15 00:25:52;;;;;;;14.63;9.10;;;;;;;;;;5053618;28;20464;-77
2022/03/15 00:28:19;;;;;;;14.60;9.25;;;;;;;;;;5053704;28;20025;-77
2022/03/15 00:30:46;;;;;;;15.60;9.48;;;;;;;;;;5053505;28;20029;-78
2022/03/15 00:33:13;;;;;;;13.23;8.27;;;;;;;;;;5053550;28;20017;-78
2022/03/15 00:35:39;;;;;;;14.95;7.93;;;;;;;;;;5053234;28;20025;-77
2022/03/15 00:38:05;;;;;;;19.25;8.93;;;;;;;;;;5053628;28;20021;-78
2022/03/15 00:40:31;;;;;;;16.38;9.07;;;;;;;;;;5053515;28;20017;-78
2022/03/15 00:42:58;;;;;;;16.60;9.30;;;;;;;;;;5053466;28;20032;-78
2022/03/15 00:45:24;;;;;;;15.07;9.40;;;;;;;;;;5053541;28;20028;-78
2022/03/15 00:47:54;;;;;;;18.92;10.43;;;;;;;;;;5053109;28;20499;-78
2022/03/15 00:50:20;;;;;;;18.80;10.65;;;;;;;;;;5053580;28;20061;-78
2022/03/15 00:52:47;;;;;;;18.58;11.25;;;;;;;;;;5050290;28;20057;-78
2022/03/15 00:55:13;;;;;;;27.35;14.70;;;;;;;;;;5053465;28;20475;-77
2022/03/15 00:57:39;;;;;;;92.20;51.03;;;;;;;;;;5052983;28;20021;-78
2022/03/15 01:00:06;;;;;;;30.35;17.65;;;;;;;;;;5053267;28;20021;-77
2022/03/15 01:02:32;;;;;;;20.80;12.77;;;;;;;;;;5053174;28;20098;-77
2022/03/15 01:04:58;;;;;;;20.73;11.35;;;;;;;;;;5052963;28;20179;-77
2022/03/15 01:07:24;;;;;;;12.18;9.45;;;;;;;;;;5053060;28;20473;-77
2022/03/15 01:09:50;;;;;;;12.00;7.47;;;;;;;;;;5052632;28;20107;-78
2022/03/15 01:12:16;;;;;;;15.25;9.50;;;;;;;;;;5052967;28;20033;-78
2022/03/15 01:14:43;;;;;;;16.38;10.23;;;;;;;;;;5052589;28;20031;-77
2022/03/15 01:17:09;;;;;;;14.45;9.93;;;;;;;;;;5055800;28;20025;-78
2022/03/15 01:19:35;;;;;;;14.20;9.55;;;;;;;;;;5055723;28;20057;-78
2022/03/15 01:22:01;;;;;;;14.95;9.05;;;;;;;;;;5052646;28;20037;-77
2022/03/15 01:24:29;;;;;;;18.13;12.35;;;;;;;;;;5050321;28;20484;-78
2022/03/15 01:26:56;;;;;;;23.95;15.20;;;;;;;;;;5052292;28;20086;-78
2022/03/15 01:29:24;;;;;;;24.90;14.77;;;;;;;;;;5052571;28;20107;-78
2022/03/15 01:31:50;;;;;;;22.50;12.90;;;;;;;;;;5052608;28;20032;-78
2022/03/15 01:34:16;;;;;;;22.38;12.63;;;;;;;;;;5052495;28;20037;-77
2022/03/15 01:36:43;;;;;;;20.85;11.77;;;;;;;;;;5052609;28;20029;-78
2022/03/15 01:39:09;;;;;;;18.83;11.30;;;;;;;;;;5053185;28;20487;-78
2022/03/15 01:41:38;;;;;;;15.77;9.73;;;;;;;;;;5053265;28;20032;-77
2022/03/15 01:44:05;;;;;;;22.30;10.40;;;;;;;;;;5052964;28;20021;-78
2022/03/15 01:46:31;;;;;;;15.68;10.63;;;;;;;;;;5053046;28;20033;-77
2022/03/15 01:48:57;;;;;;;13.43;8.68;;;;;;;;;;5051699;28;20048;-78
2022/03/15 01:51:24;;;;;;;12.68;8.90;;;;;;;;;;5052900;28;20480;-78
2022/03/15 01:53:50;;;;;;;13.00;7.70;;;;;;;;;;5052756;28;20116;-78
2022/03/15 01:56:16;;;;;;;11.77;7.10;;;;;;;;;;5053223;28;20376;-77
2022/03/15 01:58:42;;;;;;;10.30;6.25;;;;;;;;;;5052880;28;20032;-77
2022/03/15 02:01:08;;;;;;;13.18;8.30;;;;;;;;;;5052762;28;20033;-78
2022/03/15 02:03:35;;;;;;;15.38;9.82;;;;;;;;;;5052967;28;20033;-77
2022/03/15 02:06:01;;;;;;;16.15;10.13;;;;;;;;;;5052375;28;20033;-78
2022/03/15 02:08:30;;;;;;;18.30;12.10;;;;;;;;;;5052817;28;20078;-78
2022/03/15 02:10:56;;;;;;;18.23;11.30;;;;;;;;;;5050935;28;20091;-77
2022/03/15 02:13:23;;;;;;;18.48;11.40;;;;;;;;;;5052717;28;20044;-77
2022/03/15 02:15:50;;;;;;;15.75;10.23;;;;;;;;;;5052523;28;20080;-77
2022/03/15 02:18:18;;;;;;;18.50;9.68;;;;;;;;;;5052751;28;20032;-77
2022/03/15 02:20:44;;;;;;;13.80;9.45;;;;;;;;;;5052643;28;20113;-77
2022/03/15 02:23:14;;;;;;;12.95;7.85;;;;;;;;;;5052638;28;20037;-78
2022/03/15 02:25:41;;;;;;;14.27;8.43;;;;;;;;;;5051365;28;20102;-77
2022/03/15 02:28:07;;;;;;;13.10;7.47;;;;;;;;;;5055880;28;20041;-78
2022/03/15 02:30:34;;;;;;;14.30;9.43;;;;;;;;;;5053189;28;20079;-78
2022/03/15 02:33:00;;;;;;;18.38;12.07;;;;;;;;;;5050873;28;20460;-78
2022/03/15 02:35:26;;;;;;;16.63;10.23;;;;;;;;;;5051135;28;20438;-78
2022/03/15 02:37:52;;;;;;;17.63;11.05;;;;;;;;;;5051861;28;20063;-77
2022/03/15 02:40:18;;;;;;;18.38;10.55;;;;;;;;;;5052126;28;20461;-77
2022/03/15 02:42:44;;;;;;;20.80;12.02;;;;;;;;;;5052678;28;20028;-77
2022/03/15 02:45:11;;;;;;;18.30;11.10;;;;;;;;;;5051604;28;20469;-78
2022/03/15 02:47:43;;;;;;;16.85;10.02;;;;;;;;;;5052020;28;20086;-78
2022/03/15 02:50:10;;;;;;;18.20;10.52;;;;;;;;;;5051910;28;20029;-78
2022/03/15 02:52:37;;;;;;;19.10;10.77;;;;;;;;;;5051928;28;20080;-78
2022/03/15 02:55:05;;;;;;;23.17;13.57;;;;;;;;;;5051656;28;20048;-78
2022/03/15 02:57:33;;;;;;;17.90;11.70;;;;;;;;;;5051870;28;20111;-79
2022/03/15 03:00:01;;;;;;;15.07;10.35;;;;;;;;;;5051693;28;20075;-79
2022/03/15 03:02:27;;;;;;;14.80;9.70;;;;;;;;;;5051928;28;20032;-79
2022/03/15 03:04:53;;;;;;;14.73;9.27;;;;;;;;;;5051693;28;20036;-78
2022/03/15 03:07:19;;;;;;;13.15;9.18;;;;;;;;;;5051623;28;20385;-77
2022/03/15 03:09:47;;;;;;;14.35;7.30;;;;;;;;;;5051858;28;20036;-77
2022/03/15 03:12:15;;;;;;;11.88;7.25;;;;;;;;;;5050248;28;20029;-77
2022/03/15 03:14:41;;;;;;;13.13;7.78;;;;;;;;;;5052026;28;20492;-77
2022/03/15 03:17:08;;;;;;;16.02;9.02;;;;;;;;;;5051469;28;20026;-78
2022/03/15 03:19:38;;;;;;;17.15;11.15;;;;;;;;;;5051741;28;20067;-77
2022/03/15 03:22:05;;;;;;;13.90;8.18;;;;;;;;;;5049905;28;20036;-78
2022/03/15 03:24:31;;;;;;;12.48;8.45;;;;;;;;;;5051543;28;20059;-77
2022/03/15 03:26:58;;;;;;;11.32;7.45;;;;;;;;;;5050229;28;20400;-78
2022/03/15 03:29:26;;;;;;;10.85;7.20;;;;;;;;;;5051987;28;20115;-78
2022/03/15 03:31:52;;;;;;;11.77;7.60;;;;;;;;;;5051847;28;20031;-78
2022/03/15 03:34:19;;;;;;;25.95;15.50;;;;;;;;;;5052081;28;20025;-78
2022/03/15 03:36:46;;;;;;;17.33;9.32;;;;;;;;;;5052082;28;20029;-78
2022/03/15 03:39:13;;;;;;;15.90;10.15;;;;;;;;;;5055203;28;20040;-78
2022/03/15 03:41:40;;;;;;;16.52;9.88;;;;;;;;;;5050584;28;20087;-78
2022/03/15 03:44:06;;;;;;;16.10;9.85;;;;;;;;;;5051384;28;20032;-78
2022/03/15 03:46:32;;;;;;;35.42;27.40;;;;;;;;;;5051465;28;20518;-77
2022/03/15 03:48:59;;;;;;;18.10;13.23;;;;;;;;;;5051213;28;20361;-78
2022/03/15 03:51:25;;;;;;;15.50;10.50;;;;;;;;;;5051601;28;20025;-78
2022/03/15 03:53:51;;;;;;;15.30;9.57;;;;;;;;;;5051373;28;20029;-78
2022/03/15 03:56:17;;;;;;;19.92;11.55;;;;;;;;;;5052597;28;20460;-78
2022/03/15 03:58:44;;;;;;;15.65;9.13;;;;;;;;;;5055236;28;20035;-77
2022/03/15 04:01:10;;;;;;;11.82;7.95;;;;;;;;;;5054839;28;20433;-78
2022/03/15 04:03:37;;;;;;;12.75;7.60;;;;;;;;;;5055006;28;20385;-78
2022/03/15 04:06:06;;;;;;;13.90;8.45;;;;;;;;;;5054595;28;20032;-78
2022/03/15 04:08:33;;;;;;;13.27;8.23;;;;;;;;;;5055003;28;20091;-77
2022/03/15 04:10:59;;;;;;;12.82;8.00;;;;;;;;;;5054784;28;20036;-78
2022/03/15 04:13:26;;;;;;;11.82;7.65;;;;;;;;;;5055085;28;20049;-77
2022/03/15 04:15:52;;;;;;;11.50;7.18;;;;;;;;;;5055004;28;20057;-77
2022/03/15 04:18:18;;;;;;;15.32;8.23;;;;;;;;;;5054802;28;20384;-78
2022/03/15 04:20:44;;;;;;;13.20;7.95;;;;;;;;;;5054970;28;20029;-78
2022/03/15 04:23:11;;;;;;;14.95;8.23;;;;;;;;;;5054501;28;20033;-78
2022/03/15 04:25:40;;;;;;;12.70;8.25;;;;;;;;;;5054619;28;20472;-77
2022/03/15 04:28:07;;;;;;;12.27;7.88;;;;;;;;;;5054460;28;20090;-77
2022/03/15 04:30:37;;;;;;;12.35;8.05;;;;;;;;;;5054696;28;20037;-78
2022/03/15 04:33:06;;;;;;;15.25;9.73;;;;;;;;;;5054077;28;20464;-78
2022/03/15 04:35:34;;;;;;;14.68;9.55;;;;;;;;;;5054360;28;20495;-78
2022/03/15 04:38:01;;;;;;;18.30;11.15;;;;;;;;;;5054182;28;20036;-78
2022/03/15 04:40:27;;;;;;;15.60;9.77;;;;;;;;;;5054665;28;20028;-78
2022/03/15 04:42:54;;;;;;;17.48;11.32;;;;;;;;;;5054570;28;20029;-78
2022/03/15 04:45:20;;;;;;;16.55;9.52;;;;;;;;;;5053981;28;20041;-78
2022/03/15 04:47:47;;;;;;;13.93;8.95;;;;;;;;;;5054040;28;20048;-78
2022/03/15 04:50:13;;;;;;;21.48;13.77;;;;;;;;;;5053732;28;20391;-78
2022/03/15 04:52:39;;;;;;;21.35;11.65;;;;;;;;;;5053526;28;20053;-78
2022/03/15 04:55:06;;;;;;;23.35;12.18;;;;;;;;;;5053750;28;20095;-78
2022/03/15 04:57:32;;;;;;;24.55;12.15;;;;;;;;;;5053429;28;20907;-78
2022/03/15 04:59:58;;;;;;;21.65;12.38;;;;;;;;;;5053676;28;20029;-78
2022/03/15 05:02:25;;;;;;;27.58;15.07;;;;;;;;;;5053182;28;20029;-78
2022/03/15 05:04:54;;;;;;;172.70;73.03;;;;;;;;;;5053953;28;20376;-77
2022/03/15 05:07:20;;;;;;;115.65;49.20;;;;;;;;;;5053406;28;20061;-77
2022/03/15 05:12:32;;;;;;;14.93;9.93;;;;;;;;;;5053811;28;20055;-77
2022/03/15 05:14:58;;;;;;;14.88;9.80;;;;;;;;;;5053553;28;20021;-78
2022/03/15 05:17:24;;;;;;;24.95;13.45;;;;;;;;;;5053377;28;20078;-78
2022/03/15 05:19:50;;;;;;;26.23;15.43;;;;;;;;;;5053758;28;20546;-78
2022/03/15 05:22:17;;;;;;;29.33;17.90;;;;;;;;;;5053312;28;20078;-78
2022/03/15 05:24:43;;;;;;;33.88;18.98;;;;;;;;;;5053695;28;20017;-77
2022/03/15 05:27:09;;;;;;;43.25;22.65;;;;;;;;;;5053102;28;20065;-77
2022/03/15 05:29:36;;;;;;;58.03;27.42;;;;;;;;;;5052968;28;20100;-76
2022/03/15 05:32:02;;;;;;;68.10;29.42;;;;;;;;;;5052514;28;20110;-77
2022/03/15 05:34:28;;;;;;;65.25;37.38;;;;;;;;;;5053226;28;20033;-76
2022/03/15 05:36:54;;;;;;;68.07;36.95;;;;;;;;;;5053080;28;20075;-76
2022/03/15 05:39:20;;;;;;;61.17;32.85;;;;;;;;;;5052916;28;20052;-78
2022/03/15 05:41:46;;;;;;;73.85;37.05;;;;;;;;;;5053233;28;20171;-78
2022/03/15 05:44:13;;;;;;;67.45;36.08;;;;;;;;;;5051687;28;20037;-78
2022/03/15 05:46:39;;;;;;;63.33;31.80;;;;;;;;;;5052907;28;20085;-78
2022/03/15 05:49:05;;;;;;;50.90;25.90;;;;;;;;;;5052803;28;20028;-79
2022/03/15 05:51:31;;;;;;;59.83;32.47;;;;;;;;;;5052693;28;20024;-78
2022/03/15 05:53:58;;;;;;;62.97;33.45;;;;;;;;;;5052770;28;20031;-78
2022/03/15 05:56:24;;;;;;;68.32;34.75;;;;;;;;;;5052769;28;20055;-78
2022/03/15 05:58:50;;;;;;;37.30;20.75;;;;;;;;;;5051254;28;20058;-78
2022/03/15 06:01:19;;;;;;;27.67;16.85;;;;;;;;;;5052765;28;20029;-78
2022/03/15 06:03:46;;;;;;;33.63;21.00;;;;;;;;;;5052751;28;20052;-79
2022/03/15 06:06:12;;;;;;;38.53;21.80;;;;;;;;;;5038213;28;20025;-78
2022/03/15 06:08:38;;;;;;;38.00;22.30;;;;;;;;;;5033739;28;20484;-78
2022/03/15 06:11:04;;;;;;;40.90;24.58;;;;;;;;;;5052519;28;20151;-78
2022/03/15 06:13:31;;;;;;;47.00;26.95;;;;;;;;;;5052389;28;20048;-78
2022/03/15 06:15:57;;;;;;;132.20;65.13;;;;;;;;;;5052522;28;20021;-78
2022/03/15 06:18:23;;;;;;;60.65;33.45;;;;;;;;;;5051537;28;20033;-78
2022/03/15 06:20:49;;;;;;;46.33;27.92;;;;;;;;;;5052065;28;20468;-78
2022/03/15 06:23:22;;;;;;;49.45;31.10;;;;;;;;;;5051295;28;20037;-79
2022/03/15 06:25:51;;;;;;;57.63;32.80;;;;;;;;;;5052305;28;20021;-79
2022/03/15 06:28:17;;;;;;;62.80;36.10;;;;;;;;;;5050009;28;20033;-79
2022/03/15 06:30:45;;;;;;;49.70;30.13;;;;;;;;;;5047183;28;20028;-79
2022/03/15 06:33:12;;;;;;;50.92;29.90;;;;;;;;;;5046183;28;20039;-79
2022/03/15 06:35:38;;;;;;;54.28;31.15;;;;;;;;;;5049775;28;20020;-79
2022/03/15 06:38:05;;;;;;;49.10;30.05;;;;;;;;;;5048081;28;20120;-80
2022/03/15 06:40:33;;;;;;;53.75;34.75;;;;;;;;;;5044182;28;20037;-80
2022/03/15 06:43:03;;;;;;;63.35;37.55;;;;;;;;;;5045987;28;20098;-81
2022/03/15 06:45:30;;;;;;;64.43;38.10;;;;;;;;;;5044807;28;20044;-80
2022/03/15 06:47:56;;;;;;;76.03;43.67;;;;;;;;;;5048171;28;20041;-79
2022/03/15 06:50:22;;;;;;;83.68;45.40;;;;;;;;;;5034740;28;20113;-79
2022/03/15 06:52:49;;;;;;;48.42;30.23;;;;;;;;;;5030710;28;20064;-76
2022/03/15 06:55:16;;;;;;;51.58;30.20;;;;;;;;;;5030776;28;20041;-77
2022/03/15 06:57:42;;;;;;;43.08;28.23;;;;;;;;;;5031061;28;20477;-75
2022/03/15 07:00:10;;;;;;;28.65;18.27;;;;;;;;;;5045706;28;20036;-79
2022/03/15 07:02:36;;;;;;;24.70;15.82;;;;;;;;;;5050695;28;20396;-78
2022/03/15 07:05:03;;;;;;;82.68;40.85;;;;;;;;;;5050575;28;20121;-80
2022/03/15 07:07:29;;;;;;;19.55;13.05;;;;;;;;;;5050492;28;20037;-77
2022/03/15 07:09:55;;;;;;;17.88;12.48;;;;;;;;;;5050537;28;20021;-76
2022/03/15 07:12:22;;;;;;;19.48;12.02;;;;;;;;;;5050465;28;20388;-77
2022/03/15 07:14:49;;;;;;;19.08;12.63;;;;;;;;;;5050820;28;20444;-76
2022/03/15 07:17:15;;;;;;;17.25;9.82;;;;;;;;;;5050511;28;20021;-78
2022/03/15 07:19:42;;;;;;;19.92;11.88;;;;;;;;;;5049093;28;20124;-78
2022/03/15 07:22:08;;;;;;;14.23;9.82;;;;;;;;;;5050474;28;20033;-78
2022/03/15 07:24:35;;;;;;;14.48;9.82;;;;;;;;;;5050434;28;20476;-78
2022/03/15 07:27:01;;;;;;;14.20;8.88;;;;;;;;;;5049835;28;20040;-78
2022/03/15 07:29:27;;;;;;;14.75;9.45;;;;;;;;;;5050247;28;20024;-78
2022/03/15 07:31:54;;;;;;;15.60;10.75;;;;;;;;;;5052844;28;20103;-76
2022/03/15 07:34:20;;;;;;;14.60;9.70;;;;;;;;;;5053699;28;20082;-77
2022/03/15 07:36:46;;;;;;;13.60;9.88;;;;;;;;;;5051840;28;20148;-78
2022/03/15 07:39:12;;;;;;;16.23;10.82;;;;;;;;;;5037710;28;20025;-77
2022/03/15 07:41:40;;;;;;;13.73;9.68;;;;;;;;;;5054061;28;20025;-77
2022/03/15 07:44:09;;;;;;;15.18;10.18;;;;;;;;;;5042945;28;20044;-76
2022/03/15 07:46:36;;;;;;;13.13;9.68;;;;;;;;;;5045500;28;20122;-77
2022/03/15 07:49:02;;;;;;;13.57;9.85;;;;;;;;;;5053433;28;20547;-78
2022/03/15 07:51:29;;;;;;;14.07;10.27;;;;;;;;;;5053145;28;20032;-77
2022/03/15 07:53:55;;;;;;;13.75;9.57;;;;;;;;;;5052854;28;20024;-77
2022/03/15 07:56:21;;;;;;;13.88;10.30;;;;;;;;;;5052988;28;20037;-77
2022/03/15 07:58:47;;;;;;;13.23;9.65;;;;;;;;;;5053501;28;20090;-77
2022/03/15 08:01:14;;;;;;;15.60;10.52;;;;;;;;;;5053341;28;20025;-78
2022/03/15 08:03:40;;;;;;;16.02;9.32;;;;;;;;;;5052988;28;20034;-77
2022/03/15 08:06:06;;;;;;;14.27;10.40;;;;;;;;;;5053762;28;20040;-77
2022/03/15 08:08:32;;;;;;;15.85;10.68;;;;;;;;;;5053423;28;20029;-77
2022/03/15 08:10:58;;;;;;;20.17;11.13;;;;;;;;;;5050425;28;20021;-77
2022/03/15 08:13:24;;;;;;;16.58;11.40;;;;;;;;;;5044277;28;20401;-77
2022/03/15 08:15:50;;;;;;;21.95;12.15;;;;;;;;;;5033660;28;20505;-76
2022/03/15 08:18:16;;;;;;;17.27;10.68;;;;;;;;;;5033448;28;20026;-76
2022/03/15 08:20:42;;;;;;;23.90;11.95;;;;;;;;;;5033527;28;20025;-76
2022/03/15 08:23:12;;;;;;;21.45;11.65;;;;;;;;;;5033377;28;20042;-78
2022/03/15 08:25:38;;;;;;;16.75;10.20;;;;;;;;;;5032519;28;20531;-76
2022/03/15 08:28:05;;;;;;;16.33;10.23;;;;;;;;;;5033269;28;20562;-78
2022/03/15 08:30:31;;;;;;;16.77;10.40;;;;;;;;;;5056025;28;20042;-77
2022/03/15 08:32:58;;;;;;;13.70;9.27;;;;;;;;;;5041778;28;20060;-77
2022/03/15 08:35:24;;;;;;;18.65;10.90;;;;;;;;;;5047229;28;20132;-78
2022/03/15 08:37:51;;;;;;;13.68;9.20;;;;;;;;;;5053322;28;20041;-77
2022/03/15 08:40:18;;;;;;;20.98;10.88;;;;;;;;;;5053442;28;20100;-78
2022/03/15 08:42:44;;;;;;;24.00;16.50;;;;;;;;;;5052425;28;20047;-78
2022/03/15 08:45:10;;;;;;;13.65;8.85;;;;;;;;;;5052965;28;20040;-78
2022/03/15 08:47:37;;;;;;;14.25;9.05;;;;;;;;;;5052846;28;20041;-85
2022/03/15 08:50:04;;;;;;;13.40;9.60;;;;;;;;;;5052569;28;20036;-78
2022/03/15 08:52:31;;;;;;;19.08;11.05;;;;;;;;;;5052733;28;20064;-78
2022/03/15 08:54:57;;;;;;;14.60;9.43;;;;;;;;;;5052224;28;20033;-78
2022/03/15 08:57:23;;;;;;;14.50;9.85;;;;;;;;;;5052525;28;20033;-77
2022/03/15 08:59:49;;;;;;;12.50;8.88;;;;;;;;;;5052258;28;20021;-77
2022/03/15 09:02:17;;;;;;;12.63;8.80;;;;;;;;;;5052732;28;20507;-78
2022/03/15 09:04:43;;;;;;;15.00;9.38;;;;;;;;;;5052405;28;20585;-80
2022/03/15 09:07:10;;;;;;;11.90;8.80;;;;;;;;;;5052633;28;20056;-78
2022/03/15 09:09:36;;;;;;;13.07;9.43;;;;;;;;;;5052850;28;20120;-78
2022/03/15 09:12:03;;;;;;;13.75;8.50;;;;;;;;;;5051944;28;20444;-77
2022/03/15 09:14:29;;;;;;;10.18;7.78;;;;;;;;;;5052528;28;20584;-79
2022/03/15 09:16:57;;;;;;;14.32;9.27;;;;;;;;;;5052328;28;20469;-79
2022/03/15 09:19:23;;;;;;;16.15;10.07;;;;;;;;;;5048297;28;20037;-80
2022/03/15 09:21:49;;;;;;;16.77;9.13;;;;;;;;;;5032523;28;20029;-79
2022/03/15 09:24:15;;;;;;;14.35;8.07;;;;;;;;;;5042341;28;20033;-79
2022/03/15 09:26:42;;;;;;;18.63;10.10;;;;;;;;;;5050623;28;20020;-81
2022/03/15 09:29:09;;;;;;;17.33;10.23;;;;;;;;;;5052428;28;20033;-77
2022/03/15 09:31:35;;;;;;;15.23;9.93;;;;;;;;;;5051094;28;20383;-78
2022/03/15 09:34:02;;;;;;;18.77;9.20;;;;;;;;;;5051547;28;20456;-78
2022/03/15 09:36:28;;;;;;;12.52;7.93;;;;;;;;;;5052265;28;20033;-80
2022/03/15 09:38:57;;;;;;;17.80;9.05;;;;;;;;;;5051992;28;20472;-78
2022/03/15 09:41:27;;;;;;;17.35;10.50;;;;;;;;;;5051960;28;20091;-79
2022/03/15 09:43:54;;;;;;;11.15;9.15;;;;;;;;;;5051499;28;20060;-79
2022/03/15 09:46:24;;;;;;;13.05;8.25;;;;;;;;;;5051446;28;20032;-79
2022/03/15 09:48:52;;;;;;;11.02;8.07;;;;;;;;;;5052033;28;20028;-80
2022/03/15 09:51:18;;;;;;;20.13;10.38;;;;;;;;;;5051048;28;20060;-79
2022/03/15 09:53:46;;;;;;;12.25;9.40;;;;;;;;;;5049701;28;20075;-79
2022/03/15 09:56:14;;;;;;;14.38;9.82;;;;;;;;;;5051935;28;20033;-79
2022/03/15 09:58:41;;;;;;;14.60;9.88;;;;;;;;;;5051621;28;20029;-79
2022/03/15 10:01:14;;;;;;;13.15;9.70;;;;;;;;;;5050124;28;20080;-84
2022/03/15 10:03:40;;;;;;;14.50;9.73;;;;;;;;;;5043848;28;20021;-80
2022/03/15 10:06:06;;;;;;;12.10;9.10;;;;;;;;;;5043803;28;20056;-80
2022/03/15 10:08:34;;;;;;;15.75;9.70;;;;;;;;;;5040266;28;20029;-79
2022/03/15 10:11:01;;;;;;;13.63;8.73;;;;;;;;;;5037652;28;20090;-80
2022/03/15 10:13:27;;;;;;;14.13;10.05;;;;;;;;;;5042158;28;20037;-81
2022/03/15 10:16:00;;;;;;;11.50;9.20;;;;;;;;;;5039434;28;20029;-70
2022/03/15 10:18:26;;;;;;;11.70;8.93;;;;;;;;;;5031630;28;20072;-81
2022/03/15 10:20:52;;;;;;;13.55;9.45;;;;;;;;;;5031105;28;20540;-77
2022/03/15 10:23:22;;;;;;;14.73;10.00;;;;;;;;;;5031098;28;20037;-80
2022/03/15 10:25:53;;;;;;;12.95;9.43;;;;;;;;;;5037623;28;20116;-76
2022/03/15 10:28:19;;;;;;;13.48;9.07;;;;;;;;;;5043447;28;20080;-84
2022/03/15 10:30:47;;;;;;;36.97;10.45;;;;;;;;;;5051340;28;20480;-82
2022/03/15 10:33:14;;;;;;;13.82;9.32;;;;;;;;;;5048526;28;20115;-77
2022/03/15 10:35:41;;;;;;;21.73;9.23;;;;;;;;;;5048231;28;20466;-76
2022/03/15 10:38:08;;;;;;;13.38;9.68;;;;;;;;;;5050150;28;20104;-77
2022/03/15 10:40:36;;;;;;;14.32;9.48;;;;;;;;;;5049186;28;20031;-78
2022/03/15 10:43:08;;;;;;;15.98;9.25;;;;;;;;;;5050834;28;20037;-80
2022/03/15 10:45:35;;;;;;;11.68;8.93;;;;;;;;;;5044902;28;20024;-80
2022/03/15 10:48:02;;;;;;;13.63;9.70;;;;;;;;;;5049051;28;20556;-77
2022/03/15 10:50:33;;;;;;;16.10;10.40;;;;;;;;;;5047580;28;20090;-76
2022/03/15 10:52:59;;;;;;;11.43;8.57;;;;;;;;;;5050433;28;20048;-77
2022/03/15 10:55:28;;;;;;;11.13;8.93;;;;;;;;;;5048177;28;20037;-78
2022/03/15 10:58:10;;;;;;;15.27;10.18;;;;;;;;;;5045372;28;20463;-82
2022/03/15 11:00:38;;;;;;;14.70;9.18;;;;;;;;;;5047678;28;20021;-80
2022/03/15 11:03:09;;;;;;;24.35;11.38;;;;;;;;;;5047509;28;20025;-79
2022/03/15 11:05:39;;;;;;;12.27;9.45;;;;;;;;;;5048945;28;20048;-80
2022/03/15 11:08:24;;;;;;;13.63;9.52;;;;;;;;;;5055037;28;20535;-83
2022/03/15 11:10:51;;;;;;;12.88;9.00;;;;;;;;;;5054545;28;20064;-81
2022/03/15 11:13:17;;;;;;;11.55;7.95;;;;;;;;;;5054357;28;20039;-79
2022/03/15 11:15:44;;;;;;;14.88;9.45;;;;;;;;;;5054478;28;20499;-78
2022/03/15 11:18:13;;;;;;;21.65;9.98;;;;;;;;;;5054367;28;20115;-77
2022/03/15 11:20:40;;;;;;;11.38;9.48;;;;;;;;;;5053902;28;20379;-77
2022/03/15 11:23:07;;;;;;;15.85;8.77;;;;;;;;;;5050176;28;20025;-80
2022/03/15 11:25:38;;;;;;;16.88;9.82;;;;;;;;;;5050133;28;20029;-80
2022/03/15 11:28:09;;;;;;;13.70;9.85;;;;;;;;;;5053707;28;20448;-83
2022/03/15 11:30:35;;;;;;;18.95;13.10;;;;;;;;;;5054153;28;20479;-83
2022/03/15 11:33:03;;;;;;;18.65;13.27;;;;;;;;;;5053947;28;20130;-75
2022/03/15 11:35:31;;;;;;;13.35;9.50;;;;;;;;;;5049165;28;20198;-80
2022/03/15 11:38:02;;;;;;;13.32;8.98;;;;;;;;;;5048767;28;20041;-78
2022/03/15 11:40:29;;;;;;;12.05;8.85;;;;;;;;;;5032302;28;20025;-78
2022/03/15 11:43:14;;;;;;;11.77;8.23;;;;;;;;;;5041235;28;20036;-77
2022/03/15 11:46:03;;;;;;;10.25;7.85;;;;;;;;;;5047057;28;20847;-76
2022/03/15 11:48:35;;;;;;;15.55;9.85;;;;;;;;;;5049856;28;20461;-72
2022/03/15 11:51:07;;;;;;;17.65;12.68;;;;;;;;;;5048879;28;20082;-76
2022/03/15 11:53:42;;;;;;;11.82;8.30;;;;;;;;;;5048212;28;20051;-78
2022/03/15 11:56:27;;;;;;;12.15;8.07;;;;;;;;;;5048458;28;20114;-79
2022/03/15 11:58:55;;;;;;;11.45;8.73;;;;;;;;;;5050795;28;20019;-76
2022/03/15 12:01:22;;;;;;;11.52;9.00;;;;;;;;;;5052981;28;20119;-77
2022/03/15 12:03:59;;;;;;;13.70;7.45;;;;;;;;;;5051105;28;20483;-77
2022/03/15 12:06:27;;;;;;;11.60;7.60;;;;;;;;;;5053285;28;20017;-78
2022/03/15 12:08:57;;;;;;;10.32;7.32;;;;;;;;;;5053007;28;20106;-79
2022/03/15 12:11:27;;;;;;;12.23;7.82;;;;;;;;;;5052764;28;20033;-78
2022/03/15 12:14:01;;;;;;;19.48;8.00;;;;;;;;;;5052627;28;20472;-76
2022/03/15 12:16:34;;;;;;;13.75;7.28;;;;;;;;;;5051082;28;20103;-79
2022/03/15 12:21:54;;;;;;;10.90;8.52;;;;;;;;;;5051948;28;20040;-80
2022/03/15 12:24:29;;;;;;;12.75;8.38;;;;;;;;;;5053039;28;20037;-74
2022/03/15 12:27:00;;;;;;;8.93;6.78;;;;;;;;;;5051975;28;20036;-78
2022/03/15 12:29:29;;;;;;;10.98;8.90;;;;;;;;;;5051687;28;20040;-78
2022/03/15 12:31:58;;;;;;;10.65;7.65;;;;;;;;;;5049501;28;20064;-78
2022/03/15 12:34:27;;;;;;;10.82;7.78;;;;;;;;;;5031752;28;20120;-80
2022/03/15 12:36:58;;;;;;;11.35;7.78;;;;;;;;;;5033712;28;20024;-78
2022/03/15 12:39:26;;;;;;;8.30;6.35;;;;;;;;;;5042857;28;20033;-79
2022/03/15 12:42:06;;;;;;;14.20;7.43;;;;;;;;;;5053038;28;20040;-79
2022/03/15 12:44:51;;;;;;;9.23;6.63;;;;;;;;;;5051070;28;20124;-79
2022/03/15 12:47:18;;;;;;;;;;;;;;;;;;5054521;28;20036;-79
2022/03/15 12:50:03;;;;;;;8.80;6.38;;;;;;;;;;5051983;28;19912;-78
2022/03/15 12:52:37;;;;;;;9.52;6.18;;;;;;;;;;5053418;28;20049;-78
2022/03/15 12:55:03;;;;;;;7.60;5.93;;;;;;;;;;5048735;28;20029;-77
2022/03/15 12:57:29;;;;;;;9.48;5.90;;;;;;;;;;5047385;28;20029;-78
2022/03/15 12:59:56;;;;;;;9.02;6.05;;;;;;;;;;5048180;28;20028;-78
2022/03/15 13:02:22;;;;;;;12.35;6.55;;;;;;;;;;5053050;28;20064;-76
2022/03/15 13:04:48;;;;;;;9.50;7.18;;;;;;;;;;5053329;28;20492;-78
2022/03/15 13:07:15;;;;;;;15.95;8.57;;;;;;;;;;5054687;28;20064;-78
2022/03/15 13:09:41;;;;;;;9.73;6.57;;;;;;;;;;5046787;28;20043;-80
2022/03/15 13:12:18;;;;;;;7.30;5.75;;;;;;;;;;5050781;28;20024;-79
2022/03/15 13:14:44;;;;;;;7.60;5.38;;;;;;;;;;5051501;28;20056;-78
2022/03/15 13:17:10;;;;;;;8.30;6.38;;;;;;;;;;5051048;28;20134;-77
2022/03/15 13:19:37;;;;;;;9.45;6.35;;;;;;;;;;5052625;28;20032;-79
2022/03/15 13:22:04;;;;;;;8.13;5.57;;;;;;;;;;5052801;28;20412;-78
2022/03/15 13:24:34;;;;;;;8.13;5.13;;;;;;;;;;5052257;28;20091;-78
2022/03/15 13:27:00;;;;;;;7.28;5.63;;;;;;;;;;5051961;28;20036;-77
2022/03/15 13:29:29;;;;;;;7.45;6.10;;;;;;;;;;5052861;28;20033;-78
2022/03/15 13:31:55;;;;;;;8.30;5.80;;;;;;;;;;5052540;28;20037;-76
2022/03/15 13:34:26;;;;;;;9.25;6.22;;;;;;;;;;5052686;28;20063;-77
2022/03/15 13:36:53;;;;;;;8.70;7.40;;;;;;;;;;5052333;28;20041;-78
2022/03/15 13:39:20;;;;;;;8.82;5.90;;;;;;;;;;5051568;28;20047;-77
2022/03/15 13:41:49;;;;;;;7.80;6.03;;;;;;;;;;5050688;28;20510;-78
2022/03/15 13:44:17;;;;;;;10.98;6.65;;;;;;;;;;5052761;28;20610;-78
2022/03/15 13:46:44;;;;;;;7.00;5.50;;;;;;;;;;5050929;28;20070;-78
2022/03/15 13:49:23;;;;;;;7.30;5.45;;;;;;;;;;5051272;28;20147;-76
2022/03/15 13:51:52;;;;;;;16.40;9.27;;;;;;;;;;5051858;28;20057;-79
2022/03/15 13:54:21;;;;;;;9.07;5.32;;;;;;;;;;5051721;28;20502;-78
2022/03/15 13:56:55;;;;;;;7.30;5.10;;;;;;;;;;5052490;28;20029;-78
2022/03/15 13:59:23;;;;;;;7.05;4.97;;;;;;;;;;5051878;28;20120;-78
2022/03/15 14:01:52;;;;;;;8.32;6.00;;;;;;;;;;5051535;28;20062;-76
2022/03/15 14:04:19;;;;;;;7.72;5.20;;;;;;;;;;5051224;28;20033;-76
2022/03/15 14:06:47;;;;;;;16.42;7.43;;;;;;;;;;5051813;28;20094;-76
2022/03/15 14:09:24;;;;;;;9.45;6.47;;;;;;;;;;5051759;28;20029;-78
2022/03/15 14:11:50;;;;;;;7.25;5.47;;;;;;;;;;5051912;28;20060;-78
2022/03/15 14:14:22;;;;;;;7.57;5.28;;;;;;;;;;5051186;28;20043;-76
2022/03/15 14:16:50;;;;;;;8.75;5.35;;;;;;;;;;5051882;28;20021;-77
2022/03/15 14:19:20;;;;;;;12.90;6.40;;;;;;;;;;5051583;28;20075;-80
2022/03/15 14:21:50;;;;;;;8.80;5.88;;;;;;;;;;5052593;28;20025;-76
2022/03/15 14:24:22;;;;;;;11.77;7.97;;;;;;;;;;5051436;28;20033;-77
2022/03/15 14:26:50;;;;;;;11.05;7.95;;;;;;;;;;5051920;28;20041;-79
2022/03/15 14:29:19;;;;;;;15.30;9.43;;;;;;;;;;5051286;28;20033;-80
2022/03/15 14:31:47;;;;;;;10.00;5.68;;;;;;;;;;5049125;28;20075;-78
2022/03/15 14:34:14;;;;;;;5.93;4.13;;;;;;;;;;5050188;28;20049;-77